createdAt,value
2018-07-14T00:01:45.556Z,89.10
2018-07-14T00:04:13.965Z,89.20
2018-07-14T00:06:42.385Z,89.00
2018-07-14T00:09:10.777Z,88.30
2018-07-14T00:11:39.439Z,87.40
2018-07-14T00:14:07.837Z,86.20
2018-07-14T00:16:36.235Z,86.00
2018-07-14T00:19:05.054Z,87.20
2018-07-14T00:21:33.927Z,88.20
2018-07-14T00:24:02.334Z,89.20
2018-07-14T00:26:30.778Z,90.00
2018-07-14T00:28:59.234Z,90.20
2018-07-14T00:31:27.650Z,90.30
2018-07-14T00:33:56.052Z,90.60
2018-07-14T00:36:24.470Z,90.60
2018-07-14T00:38:52.862Z,90.50
2018-07-14T00:41:21.258Z,90.10
2018-07-14T00:43:49.686Z,89.60
2018-07-14T00:46:18.102Z,89.10
2018-07-14T00:48:46.514Z,90.00
2018-07-14T00:51:14.931Z,90.10
2018-07-14T00:53:43.334Z,90.20
2018-07-14T00:56:11.749Z,90.30
2018-07-14T00:58:40.146Z,90.30
2018-07-14T01:01:08.561Z,90.30
2018-07-14T01:03:36.959Z,90.30
2018-07-14T01:06:05.470Z,90.40
2018-07-14T01:08:33.897Z,90.50
2018-07-14T01:11:02.297Z,90.60
2018-07-14T01:13:30.705Z,90.70
2018-07-14T01:15:59.107Z,90.70
2018-07-14T01:18:27.509Z,90.50
2018-07-14T01:20:55.938Z,91.00
2018-07-14T01:23:24.341Z,91.10
2018-07-14T01:25:52.748Z,91.30
2018-07-14T01:28:21.176Z,91.40
2018-07-14T01:30:49.641Z,91.40
2018-07-14T01:33:18.085Z,91.40
2018-07-14T01:35:46.520Z,91.60
2018-07-14T01:38:14.960Z,91.70
2018-07-14T01:40:43.438Z,92.00
2018-07-14T01:43:11.773Z,92.50
2018-07-14T01:45:40.289Z,92.70
2018-07-14T01:48:08.697Z,92.70
2018-07-14T01:50:37.103Z,92.70
2018-07-14T01:53:05.497Z,92.40
2018-07-14T01:55:33.906Z,92.40
2018-07-14T01:58:02.310Z,92.30
2018-07-14T02:00:30.696Z,92.10
2018-07-14T02:02:59.089Z,91.80
2018-07-14T02:05:27.484Z,91.70
2018-07-14T02:07:55.878Z,91.90
2018-07-14T02:10:24.278Z,91.60
2018-07-14T02:12:52.680Z,91.40
2018-07-14T02:15:21.063Z,91.50
2018-07-14T02:17:49.462Z,91.20
2018-07-14T02:20:17.871Z,90.80
2018-07-14T02:22:46.263Z,90.60
2018-07-14T02:25:14.658Z,90.30
2018-07-14T02:27:43.062Z,90.00
2018-07-14T02:30:11.463Z,90.10
2018-07-14T02:32:39.865Z,88.80
2018-07-14T02:35:08.291Z,88.10
2018-07-14T02:37:36.717Z,87.40
2018-07-14T02:40:05.120Z,87.00
2018-07-14T02:42:33.534Z,87.40
2018-07-14T02:45:01.945Z,86.80
2018-07-14T02:47:30.348Z,86.20
2018-07-14T02:49:58.745Z,86.20
2018-07-14T02:52:27.175Z,86.50
2018-07-14T02:54:55.616Z,87.30
2018-07-14T02:57:23.978Z,88.30
2018-07-14T02:59:52.434Z,89.20
2018-07-14T03:02:20.793Z,88.10
2018-07-14T03:04:49.199Z,89.50
2018-07-14T03:07:17.602Z,90.80
2018-07-14T03:09:46.016Z,91.50
2018-07-14T03:12:14.447Z,91.90
2018-07-14T03:14:42.854Z,92.40
2018-07-14T03:17:11.561Z,92.40
2018-07-14T03:19:40.096Z,92.20
2018-07-14T03:22:08.514Z,92.10
2018-07-14T03:24:36.940Z,91.90
2018-07-14T03:27:05.363Z,91.70
2018-07-14T03:29:33.894Z,91.90
2018-07-14T03:32:02.299Z,92.20
2018-07-14T03:34:30.691Z,92.50
2018-07-14T03:36:59.694Z,92.60
2018-07-14T03:39:28.207Z,92.90
2018-07-14T03:41:56.622Z,93.10
2018-07-14T03:44:25.067Z,93.50
2018-07-14T03:46:53.488Z,93.20
2018-07-14T03:49:21.890Z,93.20
2018-07-14T03:51:50.565Z,93.20
2018-07-14T03:54:18.984Z,93.20
2018-07-14T03:56:47.402Z,93.10
2018-07-14T03:59:15.805Z,93.10
2018-07-14T04:01:44.205Z,93.00
2018-07-14T04:04:12.603Z,93.00
2018-07-14T04:06:41.007Z,93.00
2018-07-14T04:09:09.413Z,92.80
2018-07-14T04:11:37.825Z,92.80
2018-07-14T04:14:06.255Z,92.80
2018-07-14T04:16:34.701Z,92.90
2018-07-14T04:19:03.085Z,92.70
2018-07-14T04:21:31.486Z,92.70
2018-07-14T04:23:59.885Z,92.70
2018-07-14T04:26:28.278Z,92.80
2018-07-14T04:28:57.065Z,92.80
2018-07-14T04:31:25.449Z,92.60
2018-07-14T04:33:53.836Z,92.30
2018-07-14T04:36:22.231Z,92.40
2018-07-14T04:38:50.629Z,92.30
2018-07-14T04:41:19.024Z,92.20
2018-07-14T04:43:47.422Z,92.50
2018-07-14T04:46:15.883Z,92.50
2018-07-14T04:48:44.282Z,92.20
2018-07-14T04:51:12.697Z,91.70
2018-07-14T04:53:41.101Z,91.30
2018-07-14T04:56:09.504Z,91.30
2018-07-14T04:58:37.915Z,91.40
2018-07-14T05:01:06.316Z,91.70
2018-07-14T05:03:34.714Z,92.30
2018-07-14T05:06:03.114Z,92.70
2018-07-14T05:08:31.518Z,92.90
2018-07-14T05:10:59.912Z,93.10
2018-07-14T05:13:28.318Z,93.30
2018-07-14T05:15:56.707Z,93.50
2018-07-14T05:18:25.119Z,93.60
2018-07-14T05:20:53.517Z,93.70
2018-07-14T05:23:21.913Z,93.80
2018-07-14T05:25:50.294Z,93.80
2018-07-14T05:28:18.694Z,93.90
2018-07-14T05:30:47.104Z,93.90
2018-07-14T05:33:15.494Z,94.00
2018-07-14T05:35:43.888Z,94.10
2018-07-14T05:38:12.272Z,94.30
2018-07-14T05:40:40.658Z,94.30
2018-07-14T05:43:09.064Z,94.40
2018-07-14T05:48:05.706Z,94.70
2018-07-14T05:50:34.103Z,94.80
2018-07-14T05:53:02.576Z,94.90
2018-07-14T05:55:30.978Z,94.90
2018-07-14T05:57:59.844Z,94.90
2018-07-14T06:00:28.300Z,94.80
2018-07-14T06:02:56.706Z,94.60
2018-07-14T06:05:25.091Z,94.40
2018-07-14T06:07:53.512Z,94.40
2018-07-14T06:10:21.903Z,94.30
2018-07-14T06:12:50.566Z,94.50
2018-07-14T06:15:18.967Z,94.10
2018-07-14T06:17:47.367Z,94.10
2018-07-14T06:20:15.807Z,93.90
2018-07-14T06:22:44.211Z,93.80
2018-07-14T06:25:12.603Z,93.70
2018-07-14T06:27:41.015Z,93.60
2018-07-14T06:30:09.670Z,93.30
2018-07-14T06:32:38.101Z,93.20
2018-07-14T06:35:06.546Z,93.30
2018-07-14T06:37:34.941Z,93.20
2018-07-14T06:40:03.346Z,92.90
2018-07-14T06:42:31.739Z,92.80
2018-07-14T06:45:00.136Z,92.70
2018-07-14T06:47:28.542Z,92.50
2018-07-14T06:49:57.302Z,92.20
2018-07-14T06:52:25.696Z,92.00
2018-07-14T06:54:54.105Z,92.40
2018-07-14T06:57:22.506Z,91.90
2018-07-14T06:59:50.907Z,91.70
2018-07-14T07:02:19.388Z,91.60
2018-07-14T07:04:47.901Z,91.50
2018-07-14T07:07:16.297Z,91.60
2018-07-14T07:09:44.729Z,91.20
2018-07-14T07:12:13.170Z,91.10
2018-07-14T07:14:41.588Z,90.90
2018-07-14T07:17:09.976Z,90.60
2018-07-14T07:19:38.362Z,90.30
2018-07-14T07:22:06.755Z,90.20
2018-07-14T07:24:35.157Z,90.00
2018-07-14T07:27:03.554Z,89.80
2018-07-14T07:29:31.964Z,89.40
2018-07-14T07:32:00.356Z,89.00
2018-07-14T07:34:28.745Z,88.90
2018-07-14T07:36:57.129Z,88.70
2018-07-14T07:39:25.638Z,88.10
2018-07-14T07:41:54.046Z,87.50
2018-07-14T07:44:22.447Z,87.10
2018-07-14T07:46:50.847Z,87.10
2018-07-14T07:49:19.266Z,87.20
2018-07-14T07:51:47.667Z,87.00
2018-07-14T07:54:16.079Z,86.60
2018-07-14T07:56:44.495Z,86.20
2018-07-14T08:01:41.331Z,84.20
2018-07-14T08:04:09.747Z,84.20
2018-07-14T08:06:38.157Z,83.40
2018-07-14T08:09:07.397Z,83.00
2018-07-14T08:11:35.797Z,82.20
2018-07-14T08:14:04.886Z,83.10
2018-07-14T08:19:01.451Z,81.00
2018-07-14T08:21:29.855Z,80.30
2018-07-14T08:23:58.271Z,80.10
2018-07-14T08:26:26.669Z,79.80
2018-07-14T08:28:55.068Z,79.10
2018-07-14T08:31:23.504Z,78.90
2018-07-14T08:36:14.205Z,78.20
2018-07-14T08:38:43.213Z,77.20
2018-07-14T08:41:11.605Z,76.00
2018-07-14T08:43:40.040Z,75.50
2018-07-14T08:46:08.542Z,75.50
2018-07-14T08:48:36.938Z,75.20
2018-07-14T08:51:05.462Z,74.50
2018-07-14T08:53:33.848Z,73.80
2018-07-14T08:56:02.265Z,72.40
2018-07-14T08:58:30.671Z,71.50
2018-07-14T09:01:00.714Z,68.30
2018-07-14T09:03:29.119Z,67.30
2018-07-14T09:05:57.593Z,68.30
2018-07-14T09:08:26.128Z,69.50
2018-07-14T09:10:54.524Z,68.90
2018-07-14T09:13:22.989Z,68.40
2018-07-14T09:15:51.387Z,68.10
2018-07-14T09:18:19.809Z,66.80
2018-07-14T09:20:48.224Z,66.50
2018-07-14T09:23:16.614Z,66.80
2018-07-14T09:25:45.011Z,66.20
2018-07-14T09:28:13.421Z,64.70
2018-07-14T09:30:41.850Z,64.30
2018-07-14T09:33:10.231Z,63.50
2018-07-14T09:35:38.664Z,63.70
2018-07-14T09:38:07.071Z,63.80
2018-07-14T09:40:36.365Z,64.20
2018-07-14T09:43:04.793Z,63.30
2018-07-14T09:45:33.197Z,60.20
2018-07-14T09:48:01.625Z,59.50
2018-07-14T09:50:30.018Z,61.30
2018-07-14T09:52:58.666Z,61.80
2018-07-14T09:55:27.071Z,60.80
2018-07-14T09:57:55.469Z,60.50
2018-07-14T10:00:29.231Z,59.50
2018-07-14T10:02:57.627Z,59.30
2018-07-14T10:05:26.030Z,59.10
2018-07-14T10:07:54.412Z,59.20
2018-07-14T10:10:23.696Z,58.50
2018-07-14T10:12:52.135Z,58.50
2018-07-14T10:15:20.552Z,58.10
2018-07-14T10:17:49.040Z,58.10
2018-07-14T10:20:17.362Z,58.40
2018-07-14T10:22:45.773Z,57.90
2018-07-14T10:25:14.277Z,57.30
2018-07-14T10:27:42.869Z,56.50
2018-07-14T10:30:11.266Z,56.50
2018-07-14T10:32:39.662Z,56.30
2018-07-14T10:35:08.074Z,56.00
2018-07-14T10:37:36.472Z,55.60
2018-07-14T10:40:04.876Z,55.80
2018-07-14T10:42:33.308Z,55.60
2018-07-14T10:45:01.678Z,55.30
2018-07-14T10:47:30.076Z,55.00
2018-07-14T10:49:58.481Z,54.30
2018-07-14T10:52:26.878Z,54.50
2018-07-14T10:54:55.686Z,54.20
2018-07-14T10:57:24.080Z,53.80
2018-07-14T10:59:52.579Z,52.70
2018-07-14T11:02:20.978Z,52.20
2018-07-14T11:04:49.368Z,52.60
2018-07-14T11:07:17.762Z,52.10
2018-07-14T11:09:46.146Z,52.00
2018-07-14T11:12:14.620Z,51.40
2018-07-14T11:14:43.316Z,50.90
2018-07-14T11:17:11.698Z,50.10
2018-07-14T11:19:40.079Z,50.60
2018-07-14T11:22:08.464Z,50.70
2018-07-14T11:27:04.951Z,50.00
2018-07-14T11:29:33.546Z,50.50
2018-07-14T11:32:01.947Z,50.40
2018-07-14T11:34:30.676Z,50.20
2018-07-14T11:36:59.068Z,49.80
2018-07-14T11:39:27.530Z,49.70
2018-07-14T11:41:56.472Z,49.10
2018-07-14T11:44:24.896Z,48.80
2018-07-14T11:46:53.294Z,48.20
2018-07-14T11:49:21.907Z,48.40
2018-07-14T11:51:50.304Z,47.70
2018-07-14T11:54:18.812Z,47.80
2018-07-14T11:56:51.463Z,47.30
2018-07-14T11:59:19.849Z,47.40
2018-07-14T12:01:48.947Z,47.60
2018-07-14T12:04:18.069Z,47.10
2018-07-14T12:06:46.497Z,46.80
2018-07-14T12:09:14.897Z,44.30
2018-07-14T12:11:43.505Z,43.80
2018-07-14T12:14:11.932Z,43.90
2018-07-14T12:16:40.334Z,45.50
2018-07-14T12:19:09.171Z,44.20
2018-07-14T12:21:37.574Z,43.80
2018-07-14T12:24:06.796Z,43.80
2018-07-14T12:26:35.201Z,44.40
2018-07-14T12:29:03.602Z,43.00
2018-07-14T12:34:00.125Z,43.40
2018-07-14T12:36:28.555Z,42.90
2018-07-14T12:38:56.924Z,42.70
2018-07-14T12:41:25.322Z,42.30
2018-07-14T12:43:53.743Z,40.90
2018-07-14T12:46:22.271Z,41.40
2018-07-14T12:48:50.679Z,41.70
2018-07-14T12:51:19.103Z,41.40
2018-07-14T12:53:47.577Z,40.90
2018-07-14T12:56:15.927Z,40.60
2018-07-14T12:58:44.356Z,40.20
2018-07-14T13:01:12.797Z,39.60
2018-07-14T13:03:41.653Z,39.20
2018-07-14T13:06:10.055Z,39.30
2018-07-14T13:08:41.676Z,39.80
2018-07-14T13:11:10.125Z,39.00
2018-07-14T13:13:38.539Z,38.90
2018-07-14T13:16:06.940Z,38.90
2018-07-14T13:18:35.350Z,38.60
2018-07-14T13:21:04.434Z,38.80
2018-07-14T13:23:36.210Z,38.60
2018-07-14T13:26:05.658Z,38.30
2018-07-14T13:28:34.160Z,38.10
2018-07-14T13:31:02.554Z,38.30
2018-07-14T13:33:30.958Z,38.20
2018-07-14T13:35:59.548Z,38.80
2018-07-14T13:38:28.002Z,38.30
2018-07-14T13:40:56.416Z,37.80
2018-07-14T13:43:24.818Z,37.70
2018-07-14T13:45:53.254Z,38.10
2018-07-14T13:48:21.674Z,37.90
2018-07-14T13:50:50.084Z,37.90
2018-07-14T13:53:18.482Z,37.00
2018-07-14T13:55:46.879Z,37.10
2018-07-14T13:58:15.286Z,37.60
2018-07-14T14:00:43.682Z,37.80
2018-07-14T14:03:12.198Z,37.90
2018-07-14T14:05:40.656Z,37.10
2018-07-14T14:08:09.348Z,38.50
2018-07-14T14:10:37.744Z,38.70
2018-07-14T14:13:06.150Z,37.80
2018-07-14T14:15:34.600Z,37.70
2018-07-14T14:18:03.020Z,37.70
2018-07-14T14:20:31.466Z,37.30
2018-07-14T14:22:59.864Z,36.90
2018-07-14T14:25:28.324Z,36.90
2018-07-14T14:27:56.730Z,36.90
2018-07-14T14:30:25.515Z,36.70
2018-07-14T14:32:53.966Z,37.00
2018-07-14T14:35:22.474Z,36.00
2018-07-14T14:37:51.120Z,36.00
2018-07-14T14:40:19.531Z,36.20
2018-07-14T14:42:48.041Z,35.60
2018-07-14T14:45:16.579Z,35.60
2018-07-14T14:47:45.953Z,35.50
2018-07-14T14:50:14.911Z,35.90
2018-07-14T14:52:43.303Z,35.10
2018-07-14T14:55:11.725Z,35.30
2018-07-14T14:57:40.829Z,33.90
2018-07-14T15:00:09.224Z,35.00
2018-07-14T15:02:37.831Z,35.20
2018-07-14T15:05:06.249Z,35.10
2018-07-14T15:07:34.653Z,34.60
2018-07-14T15:10:03.412Z,33.90
2018-07-14T15:12:31.831Z,33.30
2018-07-14T15:15:00.241Z,32.80
2018-07-14T15:17:29.281Z,33.00
2018-07-14T15:19:58.283Z,32.90
2018-07-14T15:22:26.717Z,32.80
2018-07-14T15:24:55.297Z,32.50
2018-07-14T15:27:23.709Z,31.90
2018-07-14T15:29:52.137Z,31.80
2018-07-14T15:32:20.611Z,31.10
2018-07-14T15:34:49.233Z,31.30
2018-07-14T15:37:17.639Z,31.70
2018-07-14T15:39:46.073Z,31.90
2018-07-14T15:42:14.685Z,32.10
2018-07-14T15:44:43.143Z,32.80
2018-07-14T15:47:11.793Z,31.60
2018-07-14T15:49:40.349Z,31.60
2018-07-14T15:54:37.312Z,30.80
2018-07-14T15:59:33.894Z,31.00
2018-07-14T16:02:02.295Z,30.90
2018-07-14T16:04:30.696Z,30.90
2018-07-14T16:06:59.140Z,30.90
2018-07-14T16:09:27.790Z,30.70
2018-07-14T16:11:56.302Z,30.60
2018-07-14T16:14:24.738Z,30.80
2018-07-14T16:16:53.118Z,30.10
2018-07-14T16:19:21.860Z,30.40
2018-07-14T16:21:50.298Z,30.00
2018-07-14T16:24:18.685Z,30.20
2018-07-14T16:26:47.093Z,29.70
2018-07-14T16:29:15.518Z,29.90
2018-07-14T16:31:43.929Z,29.50
2018-07-14T16:34:12.329Z,29.70
2018-07-14T16:36:40.762Z,29.80
2018-07-14T16:39:09.946Z,29.70
2018-07-14T16:41:39.748Z,29.80
2018-07-14T16:44:08.151Z,30.00
2018-07-14T16:46:36.961Z,29.90
2018-07-14T16:49:05.573Z,29.60
2018-07-14T16:51:33.979Z,29.50
2018-07-14T16:54:02.372Z,29.20
2018-07-14T16:56:30.758Z,29.30
2018-07-14T16:58:59.174Z,29.70
2018-07-14T17:01:27.619Z,29.80
2018-07-14T17:03:56.072Z,29.70
2018-07-14T17:06:24.566Z,29.40
2018-07-14T17:08:52.994Z,28.90
2018-07-14T17:11:21.392Z,29.10
2018-07-14T17:13:49.789Z,29.10
2018-07-14T17:16:18.510Z,29.00
2018-07-14T17:18:46.988Z,29.10
2018-07-14T17:21:15.382Z,28.90
2018-07-14T17:23:43.802Z,28.80
2018-07-14T17:26:12.243Z,28.60
2018-07-14T17:28:40.738Z,28.60
2018-07-14T17:31:09.176Z,28.20
2018-07-14T17:33:37.572Z,28.10
2018-07-14T17:36:05.998Z,28.20
2018-07-14T17:38:34.432Z,28.70
2018-07-14T17:41:02.896Z,29.10
2018-07-14T17:43:31.306Z,30.00
2018-07-14T17:46:00.009Z,30.20
2018-07-14T17:48:29.008Z,29.90
2018-07-14T17:50:57.404Z,30.00
2018-07-14T17:53:25.810Z,30.30
2018-07-14T17:55:54.247Z,30.30
2018-07-14T17:58:22.664Z,30.30
2018-07-14T18:00:51.417Z,30.50
2018-07-14T18:05:47.987Z,31.20
2018-07-14T18:08:16.378Z,31.50
2018-07-14T18:10:44.804Z,31.50
2018-07-14T18:13:13.221Z,31.60
2018-07-14T18:17:10.863Z,31.50
2018-07-14T18:19:39.289Z,31.60
2018-07-14T18:22:07.698Z,31.80
2018-07-14T18:24:36.117Z,32.10
2018-07-14T18:27:04.553Z,32.70
2018-07-14T18:29:32.941Z,33.30
2018-07-14T18:32:01.764Z,34.30
2018-07-14T18:34:30.161Z,35.20
2018-07-14T18:36:58.649Z,35.90
2018-07-14T18:39:27.062Z,36.50
2018-07-14T18:41:55.459Z,36.80
2018-07-14T18:44:23.960Z,37.10
2018-07-14T18:46:52.380Z,37.50
2018-07-14T18:49:20.781Z,37.90
2018-07-14T18:51:49.194Z,38.40
2018-07-14T18:54:17.610Z,39.00
2018-07-14T18:56:46.008Z,39.40
2018-07-14T18:59:14.390Z,39.90
2018-07-14T19:01:42.787Z,40.20
2018-07-14T19:04:11.273Z,40.80
2018-07-14T19:06:39.678Z,41.20
2018-07-14T19:09:08.133Z,41.80
2018-07-14T19:11:36.493Z,42.50
2018-07-14T19:14:04.890Z,43.00
2018-07-14T19:16:33.281Z,43.80
2018-07-14T19:19:01.680Z,44.30
2018-07-14T19:21:30.086Z,44.90
2018-07-14T19:23:58.470Z,45.50
2018-07-14T19:26:26.904Z,46.00
2018-07-14T19:28:55.320Z,46.60
2018-07-14T19:33:51.882Z,47.30
2018-07-14T19:36:20.328Z,47.80
2018-07-14T19:38:48.778Z,48.60
2018-07-14T19:41:17.170Z,49.20
2018-07-14T19:43:47.642Z,50.40
2018-07-14T19:46:16.043Z,50.40
2018-07-14T19:48:44.988Z,50.80
2018-07-14T19:51:13.417Z,51.20
2018-07-14T19:53:41.843Z,51.80
2018-07-14T19:56:10.802Z,51.90
2018-07-14T19:58:39.922Z,52.50
2018-07-14T20:01:08.396Z,53.10
2018-07-14T20:03:36.861Z,53.40
2018-07-14T20:06:05.631Z,53.60
2018-07-14T20:08:34.372Z,53.80
2018-07-14T20:11:02.821Z,54.00
2018-07-14T20:13:31.269Z,54.40
2018-07-14T20:15:59.685Z,54.70
2018-07-14T20:18:28.112Z,55.10
2018-07-14T20:20:56.743Z,55.30
2018-07-14T20:23:25.146Z,55.60
2018-07-14T20:25:53.603Z,55.80
2018-07-14T20:28:22.018Z,56.10
2018-07-14T20:30:50.455Z,56.40
2018-07-14T20:33:19.595Z,56.90
2018-07-14T20:35:48.069Z,57.00
2018-07-14T20:38:16.500Z,57.40
2018-07-14T20:40:44.938Z,57.30
2018-07-14T20:43:13.333Z,57.60
2018-07-14T20:48:10.987Z,58.00
2018-07-14T20:50:39.422Z,58.10
2018-07-14T20:53:08.665Z,58.30
2018-07-14T20:55:38.617Z,58.60
2018-07-14T20:58:07.071Z,58.60
2018-07-14T21:00:35.560Z,58.60
2018-07-14T21:03:04.038Z,58.80
2018-07-14T21:05:32.509Z,58.80
2018-07-14T21:08:00.918Z,59.10
2018-07-14T21:10:30.022Z,59.60
2018-07-14T21:12:58.431Z,59.90
2018-07-14T21:15:27.030Z,60.20
2018-07-14T21:17:55.447Z,60.40
2018-07-14T21:20:24.514Z,60.50
2018-07-14T21:22:53.286Z,60.70
2018-07-14T21:25:21.700Z,60.80
2018-07-14T21:27:50.303Z,61.20
2018-07-14T21:30:19.240Z,61.30
2018-07-14T21:32:47.679Z,61.50
2018-07-14T21:35:16.148Z,61.80
2018-07-14T21:37:44.638Z,62.00
2018-07-14T21:40:13.162Z,62.20
2018-07-14T21:42:41.614Z,62.20
2018-07-14T21:45:11.424Z,61.90
2018-07-14T21:47:40.758Z,62.00
2018-07-14T21:50:09.264Z,62.50
2018-07-14T21:52:37.738Z,63.80
2018-07-14T21:55:06.243Z,64.50
2018-07-14T21:57:34.748Z,65.10
2018-07-14T22:00:03.158Z,64.90
2018-07-14T22:02:31.559Z,65.90
2018-07-14T22:05:00.171Z,66.00
2018-07-14T22:07:28.710Z,66.40
2018-07-14T22:09:57.184Z,66.50
2018-07-14T22:12:25.596Z,67.10
2018-07-14T22:14:54.122Z,67.50
2018-07-14T22:17:22.509Z,67.80
2018-07-14T22:22:11.666Z,67.60
2018-07-14T22:24:42.367Z,67.40
2018-07-14T22:27:12.272Z,67.60
2018-07-14T22:29:41.391Z,68.00
2018-07-14T22:32:10.920Z,68.00
2018-07-14T22:34:39.329Z,67.90
2018-07-14T22:37:09.944Z,67.80
2018-07-14T22:39:38.358Z,67.80
2018-07-14T22:42:11.414Z,67.60
2018-07-14T22:44:39.878Z,67.30
2018-07-14T22:47:08.289Z,66.70
2018-07-14T22:49:36.988Z,66.40
2018-07-14T22:52:05.441Z,66.30
2018-07-14T22:54:33.848Z,66.50
2018-07-14T22:57:02.261Z,66.50
2018-07-14T22:59:30.677Z,67.00
2018-07-14T23:01:59.100Z,66.80
2018-07-14T23:04:27.636Z,67.20
2018-07-14T23:06:56.046Z,68.50
2018-07-14T23:09:24.819Z,67.70
2018-07-14T23:11:53.224Z,67.50
2018-07-14T23:14:21.631Z,67.00
2018-07-14T23:16:50.031Z,67.50
2018-07-14T23:19:18.667Z,67.80
2018-07-14T23:21:47.084Z,67.80
2018-07-14T23:24:16.670Z,67.60
2018-07-14T23:26:45.095Z,67.30
2018-07-14T23:29:13.509Z,66.90
2018-07-14T23:31:41.941Z,66.30
2018-07-14T23:34:10.746Z,66.90
2018-07-14T23:36:39.173Z,66.00
2018-07-14T23:39:08.391Z,66.60
2018-07-14T23:44:06.232Z,68.00
2018-07-14T23:46:34.639Z,68.50
2018-07-14T23:49:03.044Z,69.00
2018-07-14T23:51:31.462Z,69.60
2018-07-14T23:53:59.911Z,70.10
2018-07-14T23:56:28.323Z,70.50
2018-07-14T23:58:56.735Z,70.70
